Airfield :







YOU CAN JOIN US ON...

 
LOGIN :

Register | Disclaimer

   EN    FR    IT 

 









Legend :    VFR   Marginal VFR   IFR   Intensive IFR   Very Intensive IFR
Visi :
Ceiling :
>= 8 km
>= 3000ft
5 to 8 km
1000 to 3000 ft
1500m to 5 km
500 to 1000 ft
800 to 1500m
200 to 500 ft
< 800m
< 200 ft
Symbols :   Thunderstorms  Fog  Heavy snow  Heavy precipitations  Wind > 20 kt






- Airport Elevation : 1808 ft
- IATA code : YWK


CYWK - Wabush

METAR N/A
TAF TAF CYWK
Valid from the 29 at 14:00 until the 30 at 02:00 UTC


291338Z 2914/3002 28012G22KT P6SM BKN030
TEMPO 2914/2917 5SM -SHSN BKN020
FM291700 29018G28KT P6SM SCT020
TEMPO 2917/2922 BKN020
FM292200 28018KT P6SM BKN030
TEMPO 2922/3001 11/2SM -SHSN BKN020
FM300100 28015KT P6SM SCT020 RMK NXT FCST BY 292000Z
CZUL FIR / North America



MET'MAP, your aeronautical weather chart ! - Copyright ORBIFLY December 2007 - Disclaimer

ORBIFLY MET'MAP TEAM :

Programming & Development : Alexandra Zaïnal
Concept & original design : Baudouin d'Aumeries
Assistance for programming : Marc-Olivier Méhu
Technical & hardware support : Manuel Goepfert

Contact : metmap@orbifly.com




SOURCES & CREDITS :

   NOAA